createdAt,value
2022-12-15T00:00:37.853Z,-2.91
2022-12-15T00:03:28.745Z,-2.93
2022-12-15T00:06:20.669Z,-2.96
2022-12-15T00:09:14.225Z,-2.99
2022-12-15T00:12:02.727Z,-2.97
2022-12-15T00:14:52.147Z,-2.97
2022-12-15T00:17:41.928Z,-2.90
2022-12-15T00:20:31.988Z,-2.88
2022-12-15T00:23:28.492Z,-2.86
2022-12-15T00:26:18.849Z,-2.84
2022-12-15T00:29:09.268Z,-2.84
2022-12-15T00:31:59.522Z,-2.76
2022-12-15T00:34:49.112Z,-2.73
2022-12-15T00:37:38.896Z,-2.70
2022-12-15T00:40:14.129Z,-2.74
2022-12-15T00:42:49.594Z,-2.77
2022-12-15T00:45:42.468Z,-2.72
2022-12-15T00:48:15.061Z,-2.75
2022-12-15T00:50:53.926Z,-2.73
2022-12-15T00:53:44.118Z,-2.77
2022-12-15T00:56:33.808Z,-2.90
2022-12-15T00:59:23.149Z,-2.91
2022-12-15T01:02:13.269Z,-2.87
2022-12-15T01:05:02.932Z,-2.82
2022-12-15T01:07:53.278Z,-2.78
2022-12-15T01:10:42.658Z,-2.81
2022-12-15T01:13:34.513Z,-2.77
2022-12-15T01:16:31.220Z,-2.72
2022-12-15T01:19:21.637Z,-2.74
2022-12-15T01:21:54.246Z,-2.72
2022-12-15T01:24:27.228Z,-2.67
2022-12-15T01:26:59.759Z,-2.66
2022-12-15T01:29:33.218Z,-2.67
2022-12-15T01:32:05.917Z,-2.63
2022-12-15T01:34:38.719Z,-2.65
2022-12-15T01:37:11.426Z,-2.68
2022-12-15T01:40:01.372Z,-2.68
2022-12-15T01:42:33.997Z,-2.70
2022-12-15T01:45:36.408Z,-2.73
2022-12-15T01:48:14.498Z,-2.73
2022-12-15T01:50:56.025Z,-2.68
2022-12-15T01:53:30.750Z,-2.69
2022-12-15T01:56:05.537Z,-2.67
2022-12-15T01:58:39.479Z,-2.63
2022-12-15T02:01:12.594Z,-2.61
2022-12-15T02:03:48.698Z,-2.64
2022-12-15T02:06:23.319Z,-2.61
2022-12-15T02:08:58.979Z,-2.61
2022-12-15T02:11:51.615Z,-2.62
2022-12-15T02:14:37.230Z,-2.67
2022-12-15T02:17:23.579Z,-2.67
2022-12-15T02:20:30.952Z,-2.69
2022-12-15T02:23:26.929Z,-2.60
2022-12-15T02:26:20.900Z,-2.58
2022-12-15T02:29:04.895Z,-2.57
2022-12-15T02:31:54.309Z,-2.55
2022-12-15T02:34:35.101Z,-2.53
2022-12-15T02:37:13.303Z,-2.50
2022-12-15T02:39:45.700Z,-2.43
2022-12-15T02:42:18.407Z,-2.45
2022-12-15T02:44:55.640Z,-2.45
2022-12-15T02:47:37.689Z,-2.43
2022-12-15T02:50:48.447Z,-2.44
2022-12-15T02:53:39.767Z,-2.43
2022-12-15T02:56:20.237Z,-2.35
2022-12-15T02:59:01.649Z,-2.29
2022-12-15T03:01:38.842Z,-2.32
2022-12-15T03:04:13.868Z,-2.35
2022-12-15T03:06:46.599Z,-2.28
2022-12-15T03:09:19.179Z,-2.30
2022-12-15T03:11:52.107Z,-2.32
2022-12-15T03:14:26.687Z,-2.27
2022-12-15T03:16:59.682Z,-2.25
2022-12-15T03:19:32.369Z,-2.23
2022-12-15T03:22:05.861Z,-2.23
2022-12-15T03:24:39.046Z,-2.26
2022-12-15T03:27:11.711Z,-2.26
2022-12-15T03:29:44.330Z,-2.26
2022-12-15T03:32:16.990Z,-2.21
2022-12-15T03:34:49.766Z,-2.16
2022-12-15T03:37:22.499Z,-2.13
2022-12-15T03:39:55.091Z,-2.13
2022-12-15T03:42:41.318Z,-2.14
2022-12-15T03:45:14.285Z,-2.13
2022-12-15T03:47:47.556Z,-2.12
2022-12-15T03:50:22.439Z,-2.09
2022-12-15T03:52:56.158Z,-2.18
2022-12-15T03:55:29.798Z,-2.22
2022-12-15T03:58:00.939Z,-2.22
2022-12-15T04:00:34.326Z,-2.24
2022-12-15T04:03:07.541Z,-2.23
2022-12-15T04:05:40.330Z,-2.21
2022-12-15T04:08:13.198Z,-2.18
2022-12-15T04:10:45.647Z,-2.19
2022-12-15T04:13:18.278Z,-2.19
2022-12-15T04:15:50.699Z,-2.16
2022-12-15T04:18:24.088Z,-2.12
2022-12-15T04:20:56.758Z,-2.13
2022-12-15T04:23:30.174Z,-2.14
2022-12-15T04:26:20.231Z,-2.17
2022-12-15T04:29:09.858Z,-2.16
2022-12-15T04:32:01.570Z,-2.13
2022-12-15T04:34:51.098Z,-2.12
2022-12-15T04:37:40.839Z,-2.14
2022-12-15T04:40:31.551Z,-2.15
2022-12-15T04:43:21.468Z,-2.11
2022-12-15T04:46:11.147Z,-2.05
2022-12-15T04:49:00.736Z,-2.14
2022-12-15T04:51:53.063Z,-2.11
2022-12-15T04:54:43.497Z,-2.04
2022-12-15T04:57:33.118Z,-2.02
2022-12-15T05:00:23.746Z,-1.98
2022-12-15T05:03:18.100Z,-1.95
2022-12-15T05:06:08.277Z,-1.97
2022-12-15T05:08:58.289Z,-1.93
2022-12-15T05:11:48.043Z,-1.94
2022-12-15T05:14:37.836Z,-1.93
2022-12-15T05:17:28.043Z,-1.93
2022-12-15T05:20:18.231Z,-1.85
2022-12-15T05:23:13.569Z,-1.81
2022-12-15T05:26:03.808Z,-1.83
2022-12-15T05:28:54.070Z,-1.79
2022-12-15T05:31:45.519Z,-1.79
2022-12-15T05:34:18.255Z,-1.80
2022-12-15T05:36:51.477Z,-1.79
2022-12-15T05:39:24.718Z,-1.79
2022-12-15T05:41:58.698Z,-1.81
2022-12-15T05:44:33.485Z,-1.77
2022-12-15T05:47:06.434Z,-1.77
2022-12-15T05:49:39.217Z,-1.79
2022-12-15T05:52:11.880Z,-1.91
2022-12-15T05:54:44.558Z,-1.89
2022-12-15T05:57:17.487Z,-1.92
2022-12-15T05:59:50.088Z,-1.94
2022-12-15T06:02:22.972Z,-1.90
2022-12-15T06:04:55.768Z,-1.95
2022-12-15T06:07:28.818Z,-1.94
2022-12-15T06:10:01.278Z,-1.91
2022-12-15T06:12:34.078Z,-1.94
2022-12-15T06:15:07.234Z,-1.94
2022-12-15T06:17:40.579Z,-1.97
2022-12-15T06:20:14.098Z,-1.93
2022-12-15T06:22:50.077Z,-1.93
2022-12-15T06:25:22.558Z,-1.95
2022-12-15T06:28:00.013Z,-2.00
2022-12-15T06:30:34.117Z,-1.97
2022-12-15T06:33:06.837Z,-1.94
2022-12-15T06:35:41.097Z,-1.96
2022-12-15T06:38:12.001Z,-1.98
2022-12-15T06:40:44.982Z,-2.02
2022-12-15T06:43:17.758Z,-2.02
2022-12-15T06:45:53.346Z,-2.05
2022-12-15T06:48:27.596Z,-2.07
2022-12-15T06:51:04.458Z,-2.05
2022-12-15T06:53:41.360Z,-2.06
2022-12-15T06:56:23.198Z,-2.03
2022-12-15T06:58:58.988Z,-2.10
2022-12-15T07:01:32.161Z,-2.11
2022-12-15T07:04:06.182Z,-2.17
2022-12-15T07:06:40.540Z,-2.16
2022-12-15T07:09:18.587Z,-2.09
2022-12-15T07:11:51.705Z,-2.06
2022-12-15T07:14:26.137Z,-2.03
2022-12-15T07:16:58.566Z,-2.03
2022-12-15T07:19:31.840Z,-2.06
2022-12-15T07:22:04.407Z,-2.09
2022-12-15T07:24:37.407Z,-2.10
2022-12-15T07:27:09.898Z,-2.13
2022-12-15T07:29:42.668Z,-2.11
2022-12-15T07:32:16.028Z,-2.04
2022-12-15T07:34:48.796Z,-1.97
2022-12-15T07:37:22.459Z,-1.99
2022-12-15T07:39:55.555Z,-2.00
2022-12-15T07:42:32.724Z,-1.99
2022-12-15T07:45:05.902Z,-1.87
2022-12-15T07:47:38.829Z,-1.86
2022-12-15T07:50:12.610Z,-1.92
2022-12-15T07:52:43.556Z,-1.97
2022-12-15T07:55:16.975Z,-1.95
2022-12-15T07:57:52.307Z,-1.90
2022-12-15T08:00:28.567Z,-1.89
2022-12-15T08:03:03.110Z,-1.89
2022-12-15T08:05:36.812Z,-1.85
2022-12-15T08:08:10.922Z,-1.78
2022-12-15T08:10:48.138Z,-1.73
2022-12-15T08:13:52.919Z,-1.59
2022-12-15T08:16:14.313Z,-1.61
2022-12-15T08:19:00.278Z,-1.66
2022-12-15T08:21:33.798Z,-1.73
2022-12-15T08:24:06.570Z,-1.65
2022-12-15T08:26:40.000Z,-1.59
2022-12-15T08:32:09.481Z,-1.42
2022-12-15T08:34:42.987Z,-1.35
2022-12-15T08:37:15.729Z,-1.26
2022-12-15T08:39:48.687Z,-1.20
2022-12-15T08:42:21.594Z,-1.23
2022-12-15T08:44:54.114Z,-1.29
2022-12-15T08:47:26.928Z,-1.27
2022-12-15T08:49:59.706Z,-1.22
2022-12-15T08:52:32.462Z,-1.23
2022-12-15T08:55:05.237Z,-1.21
2022-12-15T08:57:37.911Z,-1.19
2022-12-15T09:00:12.339Z,-1.13
2022-12-15T09:02:45.127Z,-1.00
2022-12-15T09:05:17.727Z,-0.93
2022-12-15T09:07:50.318Z,-0.88
2022-12-15T09:10:23.018Z,-0.82
2022-12-15T09:12:56.226Z,-0.82
2022-12-15T09:15:59.914Z,-0.81
2022-12-15T09:18:22.070Z,-0.69
2022-12-15T09:20:54.769Z,-0.59
2022-12-15T09:23:29.903Z,-0.56
2022-12-15T09:26:05.850Z,-0.47
2022-12-15T09:28:39.075Z,-0.41
2022-12-15T09:31:13.943Z,-0.46
2022-12-15T09:33:47.736Z,-0.42
2022-12-15T09:36:19.050Z,-0.38
2022-12-15T09:38:52.370Z,-0.45
2022-12-15T09:41:28.392Z,-0.45
2022-12-15T09:44:05.048Z,-0.53
2022-12-15T09:47:12.321Z,-0.54
2022-12-15T09:49:55.013Z,-0.63
2022-12-15T09:52:30.659Z,-0.56
2022-12-15T09:55:05.079Z,-0.48
2022-12-15T09:57:46.449Z,-0.47
2022-12-15T10:00:26.154Z,-0.46
2022-12-15T10:03:12.671Z,-0.45
2022-12-15T10:06:15.996Z,-0.32
2022-12-15T10:08:52.161Z,-0.33
2022-12-15T10:11:38.388Z,-0.27
2022-12-15T10:14:23.459Z,-0.33
2022-12-15T10:17:05.067Z,-0.28
2022-12-15T10:19:43.599Z,-0.19
2022-12-15T10:22:18.849Z,-0.18
2022-12-15T10:28:07.622Z,-0.19
2022-12-15T10:30:47.533Z,-0.21
2022-12-15T10:33:26.045Z,-0.17
2022-12-15T10:36:00.269Z,-0.15
2022-12-15T10:38:38.348Z,-0.10
2022-12-15T10:41:14.160Z,-0.04
2022-12-15T10:43:48.561Z,-0.06
2022-12-15T10:46:26.058Z,-0.03
2022-12-15T10:49:02.851Z,0.10
2022-12-15T10:51:38.244Z,0.34
2022-12-15T10:54:16.539Z,0.54
2022-12-15T10:56:54.673Z,0.60
2022-12-15T10:59:31.258Z,0.55
2022-12-15T11:02:27.829Z,0.60
2022-12-15T11:05:02.093Z,0.60
2022-12-15T11:07:41.078Z,0.60
2022-12-15T11:10:19.990Z,0.58
2022-12-15T11:13:02.068Z,0.54
2022-12-15T11:15:51.641Z,0.58
2022-12-15T11:18:36.643Z,0.55
2022-12-15T11:21:20.526Z,0.59
2022-12-15T11:24:04.331Z,0.71
2022-12-15T11:26:49.052Z,0.81
2022-12-15T11:29:31.403Z,0.84
2022-12-15T11:32:07.266Z,0.87
2022-12-15T11:34:44.260Z,0.86
2022-12-15T11:37:37.775Z,0.85
2022-12-15T11:40:36.130Z,0.84
2022-12-15T11:43:35.945Z,0.84
2022-12-15T11:46:20.664Z,0.83
2022-12-15T11:48:59.327Z,0.81
2022-12-15T11:51:40.970Z,0.67
2022-12-15T11:54:24.785Z,0.63
2022-12-15T11:57:04.740Z,0.60
2022-12-15T11:59:53.562Z,0.50
2022-12-15T12:02:51.915Z,0.56
2022-12-15T12:05:37.719Z,0.46
2022-12-15T12:08:27.028Z,0.51
2022-12-15T12:11:07.180Z,0.53
2022-12-15T12:13:50.315Z,0.51
2022-12-15T12:16:33.819Z,0.52
2022-12-15T12:19:11.860Z,0.51
2022-12-15T12:24:48.898Z,0.34
2022-12-15T12:27:32.158Z,0.26
2022-12-15T12:30:07.780Z,0.22
2022-12-15T12:32:50.371Z,0.15
2022-12-15T12:35:33.207Z,0.03
2022-12-15T12:38:08.038Z,0.08
2022-12-15T12:40:50.546Z,0.11
2022-12-15T12:43:33.976Z,0.14
2022-12-15T12:46:12.187Z,0.13
2022-12-15T12:48:51.255Z,0.10
2022-12-15T12:51:31.452Z,0.07
2022-12-15T12:54:12.745Z,0.05
2022-12-15T12:56:50.615Z,0.07
2022-12-15T12:59:42.511Z,0.08
2022-12-15T13:02:55.487Z,0.05
2022-12-15T13:05:33.518Z,-0.13
2022-12-15T13:08:42.721Z,-0.16
2022-12-15T13:11:49.006Z,-0.09
2022-12-15T13:14:26.636Z,-0.17
2022-12-15T13:20:29.583Z,-0.31
2022-12-15T13:23:34.941Z,-0.33
2022-12-15T13:26:20.228Z,-0.48
2022-12-15T13:28:58.090Z,-0.48
2022-12-15T13:31:54.290Z,-0.66
2022-12-15T13:34:30.111Z,-0.86
2022-12-15T13:37:04.349Z,-0.91
2022-12-15T13:39:53.259Z,-0.97
2022-12-15T13:42:56.194Z,-1.26
2022-12-15T13:45:48.836Z,-1.25
2022-12-15T13:48:39.395Z,-1.30
2022-12-15T13:51:25.009Z,-1.34
2022-12-15T13:54:01.405Z,-1.62
2022-12-15T13:56:47.858Z,-1.59
2022-12-15T13:59:37.768Z,-1.61
2022-12-15T14:02:27.480Z,-1.62
2022-12-15T14:05:17.841Z,-1.60
2022-12-15T14:07:54.733Z,-1.58
2022-12-15T14:10:30.412Z,-1.60
2022-12-15T14:13:16.057Z,-1.63
2022-12-15T14:15:52.778Z,-1.65
2022-12-15T14:18:34.008Z,-1.67
2022-12-15T14:21:25.219Z,-1.72
2022-12-15T14:24:36.535Z,-1.72
2022-12-15T14:26:51.514Z,-1.72
2022-12-15T14:29:24.279Z,-1.71
2022-12-15T14:31:58.990Z,-1.69
2022-12-15T14:34:35.218Z,-1.78
2022-12-15T14:37:18.128Z,-1.83
2022-12-15T14:39:52.647Z,-1.84
2022-12-15T14:42:28.479Z,-1.77
2022-12-15T14:45:02.371Z,-1.83
2022-12-15T14:47:36.999Z,-1.85
2022-12-15T14:50:13.590Z,-1.97
2022-12-15T14:52:48.689Z,-2.03
2022-12-15T14:55:35.831Z,-1.99
2022-12-15T14:58:36.068Z,-2.00
2022-12-15T15:01:26.717Z,-2.01
2022-12-15T15:03:09.591Z,0.40
2022-12-15T15:04:03.828Z,-2.00
2022-12-15T15:06:47.709Z,-2.03
2022-12-15T15:09:28.593Z,-1.98
2022-12-15T15:12:05.841Z,-2.02
2022-12-15T15:14:43.889Z,-2.02
2022-12-15T15:17:25.362Z,-2.07
2022-12-15T15:20:01.998Z,-2.16
2022-12-15T15:22:40.029Z,-2.25
2022-12-15T15:25:41.408Z,-2.21
2022-12-15T15:28:28.886Z,-2.18
2022-12-15T15:31:07.189Z,-2.22
2022-12-15T15:33:42.189Z,-2.22
2022-12-15T15:36:17.074Z,-2.23
2022-12-15T15:38:50.508Z,-2.27
2022-12-15T15:41:30.852Z,-2.19
2022-12-15T15:44:04.849Z,-2.18
2022-12-15T15:46:44.741Z,-2.13
2022-12-15T15:49:21.130Z,-2.13
2022-12-15T15:51:56.681Z,-2.23
2022-12-15T15:54:37.240Z,-2.23
2022-12-15T15:57:11.099Z,-2.17
2022-12-15T15:59:44.763Z,-2.17
2022-12-15T16:02:18.199Z,-2.14
2022-12-15T16:04:51.247Z,-2.11
2022-12-15T16:07:27.340Z,-2.09
2022-12-15T16:10:00.848Z,-2.09
2022-12-15T16:12:37.968Z,-2.09
2022-12-15T16:15:17.595Z,-2.07
2022-12-15T16:17:50.977Z,-2.13
2022-12-15T16:20:25.799Z,-2.20
2022-12-15T16:23:02.119Z,-2.23
2022-12-15T16:25:46.609Z,-2.19
2022-12-15T16:28:24.791Z,-2.24
2022-12-15T16:30:59.362Z,-2.28
2022-12-15T16:33:32.447Z,-2.35
2022-12-15T16:36:08.840Z,-2.47
2022-12-15T16:39:19.890Z,-2.55
2022-12-15T16:41:53.369Z,-2.65
2022-12-15T16:44:27.240Z,-2.64
2022-12-15T16:47:01.557Z,-2.60
2022-12-15T16:49:39.943Z,-2.62
2022-12-15T16:52:21.736Z,-2.68
2022-12-15T16:54:54.732Z,-2.79
2022-12-15T16:57:27.619Z,-2.77
2022-12-15T17:00:00.220Z,-2.83
2022-12-15T17:02:33.859Z,-2.78
2022-12-15T17:05:07.338Z,-2.76
2022-12-15T17:07:40.950Z,-2.82
2022-12-15T17:10:17.098Z,-2.82
2022-12-15T17:12:50.421Z,-2.83
2022-12-15T17:15:27.520Z,-2.82
2022-12-15T17:18:00.097Z,-2.86
2022-12-15T17:20:34.220Z,-2.92
2022-12-15T17:23:09.481Z,-2.93
2022-12-15T17:26:19.580Z,-2.98
2022-12-15T17:28:41.080Z,-2.95
2022-12-15T17:31:19.416Z,-2.89
2022-12-15T17:33:53.710Z,-2.89
2022-12-15T17:36:29.247Z,-2.86
2022-12-15T17:39:03.180Z,-2.82
2022-12-15T17:41:58.536Z,-2.83
2022-12-15T17:44:34.115Z,-2.88
2022-12-15T17:47:09.180Z,-2.99
2022-12-15T17:49:42.970Z,-3.01
2022-12-15T17:52:28.424Z,-3.02
2022-12-15T17:55:02.051Z,-3.09
2022-12-15T17:57:35.489Z,-3.16
2022-12-15T18:00:19.429Z,-3.17
2022-12-15T18:02:52.337Z,-3.12
2022-12-15T18:05:31.217Z,-3.14
2022-12-15T18:08:09.110Z,-3.15
2022-12-15T18:10:42.851Z,-3.13
2022-12-15T18:13:24.230Z,-3.10
2022-12-15T18:15:57.846Z,-3.05
2022-12-15T18:18:28.859Z,-3.08
2022-12-15T18:21:04.931Z,-3.13
2022-12-15T18:23:37.568Z,-3.10
2022-12-15T18:26:11.195Z,-3.09
2022-12-15T18:28:42.081Z,-3.08
2022-12-15T18:31:21.743Z,-3.11
2022-12-15T18:34:04.779Z,-3.01
2022-12-15T18:36:38.303Z,-2.95
2022-12-15T18:39:21.019Z,-2.94
2022-12-15T18:41:55.159Z,-2.94
2022-12-15T18:44:30.776Z,-2.91
2022-12-15T18:47:26.905Z,-2.89
2022-12-15T18:50:00.031Z,-2.89
2022-12-15T18:52:35.047Z,-2.89
2022-12-15T18:55:16.359Z,-2.96
2022-12-15T18:57:49.689Z,-3.15
2022-12-15T19:00:26.301Z,-3.13
2022-12-15T19:03:02.096Z,-3.11
2022-12-15T19:05:34.777Z,-3.12
2022-12-15T19:08:13.717Z,-3.13
2022-12-15T19:10:51.348Z,-3.04
2022-12-15T19:13:25.999Z,-2.95
2022-12-15T19:15:59.316Z,-2.93
2022-12-15T19:18:49.798Z,-2.91
2022-12-15T19:21:41.248Z,-2.86
2022-12-15T19:24:17.768Z,-2.82
2022-12-15T19:26:50.522Z,-2.81
2022-12-15T19:29:25.012Z,-2.94
2022-12-15T19:32:00.063Z,-3.00
2022-12-15T19:34:34.719Z,-2.99
2022-12-15T19:37:16.374Z,-3.02
2022-12-15T19:39:52.275Z,-3.04
2022-12-15T19:42:32.309Z,-3.12
2022-12-15T19:45:15.794Z,-3.11
2022-12-15T19:47:50.279Z,-3.27
2022-12-15T19:50:27.638Z,-3.31
2022-12-15T19:53:03.099Z,-3.36
2022-12-15T19:55:38.040Z,-3.45
2022-12-15T19:58:28.925Z,-3.40
2022-12-15T20:01:03.737Z,-3.32
2022-12-15T20:03:39.644Z,-3.33
2022-12-15T20:06:18.609Z,-3.34
2022-12-15T20:08:54.814Z,-3.42
2022-12-15T20:11:31.387Z,-3.43
2022-12-15T20:14:05.299Z,-3.47
2022-12-15T20:16:38.020Z,-3.44
2022-12-15T20:19:11.329Z,-3.41
2022-12-15T20:21:44.746Z,-3.39
2022-12-15T20:24:21.839Z,-3.36
2022-12-15T20:26:56.187Z,-3.33
2022-12-15T20:29:30.767Z,-3.31
2022-12-15T20:32:08.873Z,-3.25
2022-12-15T20:34:42.150Z,-3.26
2022-12-15T20:37:22.159Z,-3.22
2022-12-15T20:39:57.742Z,-3.25
2022-12-15T20:42:31.357Z,-3.25
2022-12-15T20:45:02.657Z,-3.26
2022-12-15T20:47:35.799Z,-3.33
2022-12-15T20:50:22.824Z,-3.29
2022-12-15T20:52:56.311Z,-3.38
2022-12-15T20:55:33.390Z,-3.42
2022-12-15T20:58:10.868Z,-3.40
2022-12-15T21:00:52.184Z,-3.38
2022-12-15T21:03:37.105Z,-3.40
2022-12-15T21:06:17.507Z,-3.42
2022-12-15T21:08:56.343Z,-3.40
2022-12-15T21:11:33.638Z,-3.42
2022-12-15T21:14:11.568Z,-3.44
2022-12-15T21:16:44.478Z,-3.45
2022-12-15T21:19:20.984Z,-3.44
2022-12-15T21:21:56.009Z,-3.42
2022-12-15T21:24:30.536Z,-3.44
2022-12-15T21:27:04.738Z,-3.41
2022-12-15T21:29:37.817Z,-3.44
2022-12-15T21:32:10.849Z,-3.47
2022-12-15T21:34:44.418Z,-3.44
2022-12-15T21:37:28.918Z,-3.45
2022-12-15T21:40:02.255Z,-3.46
2022-12-15T21:42:38.368Z,-3.41
2022-12-15T21:45:17.310Z,-3.41
2022-12-15T21:48:08.511Z,-3.36
2022-12-15T21:50:43.546Z,-3.36
2022-12-15T21:53:18.048Z,-3.36
2022-12-15T21:55:51.221Z,-3.38
2022-12-15T21:58:27.916Z,-3.46
2022-12-15T22:01:01.019Z,-3.53
2022-12-15T22:03:34.249Z,-3.62
2022-12-15T22:06:08.858Z,-3.66
2022-12-15T22:08:42.151Z,-3.69
2022-12-15T22:11:24.082Z,-3.62
2022-12-15T22:13:58.879Z,-3.64
2022-12-15T22:16:32.227Z,-3.70
2022-12-15T22:19:05.530Z,-3.68
2022-12-15T22:22:09.738Z,-3.68
2022-12-15T22:24:42.716Z,-3.69
2022-12-15T22:27:22.361Z,-3.69
2022-12-15T22:29:57.861Z,-3.74
2022-12-15T22:35:58.108Z,-3.64
2022-12-15T22:38:31.163Z,-3.65
2022-12-15T22:41:04.848Z,-3.62
2022-12-15T22:43:41.468Z,-3.61
2022-12-15T22:46:16.643Z,-3.49
2022-12-15T22:48:50.658Z,-3.52
2022-12-15T22:51:24.048Z,-3.52
2022-12-15T22:53:56.859Z,-3.57
2022-12-15T22:56:36.149Z,-3.62
2022-12-15T22:59:14.509Z,-3.62
2022-12-15T23:01:47.574Z,-3.59
2022-12-15T23:04:20.571Z,-3.54
2022-12-15T23:06:53.048Z,-3.41
2022-12-15T23:09:28.445Z,-3.35
2022-12-15T23:12:01.040Z,-3.33
2022-12-15T23:14:52.038Z,-3.34
2022-12-15T23:17:25.071Z,-3.31
2022-12-15T23:19:57.966Z,-3.27
2022-12-15T23:22:31.928Z,-3.30
2022-12-15T23:25:07.880Z,-3.29
2022-12-15T23:27:40.788Z,-3.30
2022-12-15T23:30:15.181Z,-3.31
2022-12-15T23:32:47.588Z,-3.26
2022-12-15T23:35:20.479Z,-3.28
2022-12-15T23:37:52.813Z,-3.24
2022-12-15T23:40:25.768Z,-3.21
2022-12-15T23:42:58.566Z,-3.25
2022-12-15T23:45:31.317Z,-3.24
2022-12-15T23:48:03.720Z,-3.22
2022-12-15T23:50:37.257Z,-3.20
2022-12-15T23:53:08.397Z,-3.14
2022-12-15T23:55:41.467Z,-3.17
2022-12-15T23:58:14.448Z,-3.12
